Terminal Aerodrome Forecast
Issued by NWS

Home | Current Version | Previous Version | Text Only | Print | Product List | Glossary On
Versions: 1 2 3 4 5 6 7 8 9 10 11 12 13 14 15 16 17 18
143
FTUS41 KPBZ 091132
TAFDUJ
TAF
KDUJ 091132Z 0912/1012 24005KT 5SM -SHSN OVC008
     FM091800 30008KT P6SM BKN010
     FM100400 26006KT 5SM -SHSN BKN008=

USA.gov is the U.S. government's official web portal to all federal, state and local government web resources and services.